Time;durP1;ratioP1;P1;durP2;ratioP2;P2;SDS_P1;SDS_P2;PMS_P1;PMS_P2;Temp;Humidity;BMP_temperature;BMP_pressure;BME280_temperature;BME280_humidity;BME280_pressure;Samples;Min_cycle;Max_cycle;Signal;HPM_P1;HPM_P2
2023/01/08 00:02:15;;;;;;;16.60;9.85;;;;;;;-4.35;60.76;100608.62;1758700;81;21007;-38
2023/01/08 00:04:42;;;;;;;17.50;9.38;;;;;;;-4.34;60.96;100620.31;1758669;81;21646;-38
2023/01/08 00:07:09;;;;;;;18.27;10.58;;;;;;;-4.30;60.98;100621.98;1758786;81;20916;-38
2023/01/08 00:09:35;;;;;;;18.67;10.78;;;;;;;-4.32;60.99;100612.16;1758963;81;21044;-38
2023/01/08 00:12:03;;;;;;;20.43;11.18;;;;;;;-4.30;61.05;100612.71;1758985;81;21248;-38
2023/01/08 00:14:30;;;;;;;19.12;11.48;;;;;;;-4.29;60.98;100614.33;1759050;81;20901;-38
2023/01/08 00:16:56;;;;;;;16.30;10.63;;;;;;;-4.34;61.06;100610.24;1758920;81;20976;-38
2023/01/08 00:19:25;;;;;;;22.30;12.10;;;;;;;-4.38;60.93;100612.55;1758997;81;21545;-38
2023/01/08 00:21:52;;;;;;;16.97;10.40;;;;;;;-4.43;60.99;100609.28;1759005;81;21015;-38
2023/01/08 00:24:19;;;;;;;20.25;11.10;;;;;;;-4.70;61.27;100566.31;1758788;81;21126;-38
2023/01/08 00:26:47;;;;;;;16.65;9.88;;;;;;;-4.37;61.38;100606.75;1758827;81;21077;-38
2023/01/08 00:29:15;;;;;;;18.90;11.53;;;;;;;-4.32;61.57;100602.38;1758681;81;21012;-38
2023/01/08 00:31:42;;;;;;;19.70;12.13;;;;;;;-4.27;61.27;100603.00;1758791;81;20987;-38
2023/01/08 00:34:09;;;;;;;19.77;11.70;;;;;;;-4.33;61.00;100599.95;1758769;81;21003;-38
2023/01/08 00:36:36;;;;;;;19.23;11.05;;;;;;;-4.38;61.28;100600.64;1753620;81;21638;-38
2023/01/08 00:39:03;;;;;;;21.37;12.35;;;;;;;-4.36;61.16;100597.78;1760425;81;21517;-38
2023/01/08 00:41:30;;;;;;;20.45;12.05;;;;;;;-4.37;61.25;100602.26;1760690;81;20947;-38
2023/01/08 00:43:56;;;;;;;20.20;12.18;;;;;;;-4.37;61.25;100604.91;1760575;81;21503;-38
2023/01/08 00:46:23;;;;;;;19.25;12.03;;;;;;;-4.33;61.59;100592.81;1760583;81;21011;-38
2023/01/08 00:48:50;;;;;;;21.23;12.98;;;;;;;-4.33;61.66;100595.46;1760619;81;21142;-38
2023/01/08 00:51:17;;;;;;;23.50;14.18;;;;;;;-4.32;61.42;100585.69;1760299;81;22210;-38
2023/01/08 00:53:44;;;;;;;20.45;12.03;;;;;;;-4.37;61.39;100591.67;1760602;81;20912;-38
2023/01/08 00:56:10;;;;;;;23.00;13.65;;;;;;;-4.39;61.40;100593.73;1760514;81;20971;-38
2023/01/08 00:58:37;;;;;;;23.67;13.98;;;;;;;-4.40;61.54;100594.77;1760676;81;21098;-38
2023/01/08 01:01:11;;;;;;;20.70;12.37;;;;;;;-4.44;61.82;100596.27;1760740;81;21134;-38
2023/01/08 01:03:38;;;;;;;20.37;12.80;;;;;;;-4.41;61.55;100602.44;1760731;81;20959;-38
2023/01/08 01:06:05;;;;;;;24.75;13.25;;;;;;;-4.45;61.65;100598.62;1760592;81;21035;-38
2023/01/08 01:08:34;;;;;;;25.10;13.50;;;;;;;-4.43;61.76;100595.23;1760867;81;20920;-38
2023/01/08 01:11:20;;;;;;;26.73;15.45;;;;;;;-4.35;61.53;100600.69;1760640;81;21035;-38
2023/01/08 01:13:47;;;;;;;26.90;13.62;;;;;;;-4.36;61.40;100596.45;1760957;81;23254;-38
2023/01/08 01:16:16;;;;;;;27.35;13.72;;;;;;;-4.35;61.15;100599.36;1760954;81;20939;-38
2023/01/08 01:18:43;;;;;;;20.08;11.20;;;;;;;-4.31;61.43;100600.02;1761200;81;21546;-38
2023/01/08 01:21:28;;;;;;;27.90;14.15;;;;;;;-4.32;61.24;100602.38;1760984;81;21462;-38
2023/01/08 01:23:59;;;;;;;31.27;13.28;;;;;;;-4.35;61.42;100591.42;1761120;81;21000;-39
2023/01/08 01:26:26;;;;;;;24.07;13.53;;;;;;;-4.37;61.24;100586.89;1761073;81;21524;-39
2023/01/08 01:28:54;;;;;;;22.48;12.88;;;;;;;-4.39;61.19;100580.50;1760947;81;21478;-38
2023/01/08 01:31:22;;;;;;;26.40;14.70;;;;;;;-4.36;61.24;100580.05;1761170;81;21023;-39
2023/01/08 01:33:49;;;;;;;24.80;14.80;;;;;;;-4.35;61.40;100581.64;1760918;81;20932;-39
2023/01/08 01:36:17;;;;;;;26.10;14.65;;;;;;;-4.32;61.45;100584.36;1760679;81;21581;-39
2023/01/08 01:38:46;;;;;;;28.90;15.65;;;;;;;-4.28;61.28;100587.63;1760684;81;21146;-39
2023/01/08 01:41:30;;;;;;;29.00;15.23;;;;;;;-4.30;61.15;100583.08;1760529;81;21580;-39
2023/01/08 01:44:21;;;;;;;31.37;17.10;;;;;;;-4.26;60.98;100592.70;1760944;81;21525;-38
2023/01/08 01:46:47;;;;;;;30.68;16.23;;;;;;;-4.33;60.79;100591.49;1760651;81;21003;-38
2023/01/08 01:49:18;;;;;;;44.33;18.57;;;;;;;-4.42;60.99;100590.23;1735338;81;21540;-39
2023/01/08 01:51:49;;;;;;;41.90;18.57;;;;;;;-4.43;60.96;100588.62;1760703;81;21102;-39
2023/01/08 01:54:16;;;;;;;35.55;18.02;;;;;;;-4.44;61.19;100586.48;1760869;81;21071;-39
2023/01/08 01:56:44;;;;;;;43.13;19.52;;;;;;;-4.46;61.35;100592.55;1760636;81;20939;-39
2023/01/08 01:59:11;;;;;;;43.35;17.98;;;;;;;-4.47;61.57;100594.09;1760643;81;20967;-38
2023/01/08 02:01:39;;;;;;;42.23;18.65;;;;;;;-4.43;61.73;100593.40;1760836;81;21094;-38
2023/01/08 02:04:08;;;;;;;36.15;17.98;;;;;;;-4.40;61.45;100592.12;1760703;81;21139;-38
2023/01/08 02:06:42;;;;;;;34.67;16.85;;;;;;;-4.47;61.36;100588.80;1760899;81;20955;-39
2023/01/08 02:09:41;;;;;;;34.33;16.52;;;;;;;-4.50;61.31;100586.08;1761103;81;20924;-38
2023/01/08 02:12:23;;;;;;;30.37;15.53;;;;;;;-4.51;61.52;100585.81;1760781;81;20976;-39
2023/01/08 02:15:01;;;;;;;32.08;15.40;;;;;;;-4.55;61.75;100579.89;1760880;81;21540;-38
2023/01/08 02:17:51;;;;;;;34.78;16.20;;;;;;;-4.54;61.64;100579.64;1760722;81;23162;-38
2023/01/08 02:20:31;;;;;;;34.15;15.38;;;;;;;-4.51;61.54;100586.33;1760467;81;21527;-38
2023/01/08 02:23:19;;;;;;;30.60;16.50;;;;;;;-4.55;61.94;100581.22;1761039;81;20990;-39
2023/01/08 02:26:19;;;;;;;31.23;15.10;;;;;;;-4.52;62.14;100584.72;1760816;81;20939;-39
2023/01/08 02:29:06;;;;;;;36.98;15.68;;;;;;;-4.48;62.02;100578.73;1761019;81;21059;-39
2023/01/08 02:31:34;;;;;;;32.15;15.05;;;;;;;-4.46;61.87;100574.53;1760909;81;21740;-39
2023/01/08 02:34:01;;;;;;;31.55;14.73;;;;;;;-4.44;61.84;100576.41;1735549;81;20932;-38
2023/01/08 02:36:36;;;;;;;34.55;15.32;;;;;;;-4.43;61.82;100571.41;1760880;81;20998;-38
2023/01/08 02:39:43;;;;;;;26.05;14.85;;;;;;;-4.46;61.92;100583.80;1761011;81;21024;-38
2023/01/08 02:42:39;;;;;;;29.23;14.87;;;;;;;-4.44;62.06;100579.06;1768126;80;21470;-38
2023/01/08 02:45:26;;;;;;;31.10;14.70;;;;;;;-4.40;62.19;100576.23;1788842;80;21292;-38
2023/01/08 02:48:04;;;;;;;28.98;15.48;;;;;;;-4.37;62.18;100571.02;1788834;80;21003;-38
2023/01/08 02:50:39;;;;;;;28.05;15.78;;;;;;;-4.35;62.29;100572.37;1789391;80;20988;-39
2023/01/08 02:53:19;;;;;;;28.20;15.20;;;;;;;-4.21;62.19;100576.93;1776712;80;21020;-38
2023/01/08 02:55:54;;;;;;;29.85;14.30;;;;;;;-4.10;61.99;100579.54;1789558;80;21036;-38
2023/01/08 02:58:21;;;;;;;27.15;14.73;;;;;;;-4.09;61.70;100581.16;1788193;80;21276;-38
2023/01/08 03:00:47;;;;;;;27.90;14.45;;;;;;;-4.04;61.71;100578.61;1789572;80;21800;-38
2023/01/08 03:03:18;;;;;;;25.40;13.55;;;;;;;-3.97;61.60;100583.79;1789517;80;21520;-38
2023/01/08 03:05:49;;;;;;;24.72;13.10;;;;;;;-3.96;61.58;100580.89;1789459;80;21036;-39
2023/01/08 03:08:16;;;;;;;29.75;12.98;;;;;;;-3.99;61.48;100574.74;1789973;80;21361;-38
2023/01/08 03:10:45;;;;;;;22.05;11.93;;;;;;;-4.03;61.38;100584.20;1789451;80;21297;-38
2023/01/08 03:13:38;;;;;;;20.90;11.83;;;;;;;-4.11;61.54;100581.89;1789741;80;20999;-39
2023/01/08 03:16:10;;;;;;;21.85;11.88;;;;;;;-4.22;61.88;100586.72;1789423;80;21016;-39
2023/01/08 03:18:42;;;;;;;23.73;13.60;;;;;;;-4.30;62.21;100584.40;1789632;80;20995;-38
2023/01/08 03:21:09;;;;;;;23.50;12.55;;;;;;;-4.30;62.20;100591.02;1789525;80;21001;-38
2023/01/08 03:23:35;;;;;;;27.95;13.85;;;;;;;-4.31;62.27;100589.43;1789433;80;21197;-39
2023/01/08 03:26:02;;;;;;;25.48;13.68;;;;;;;-4.39;62.38;100591.08;1789387;80;20960;-39
2023/01/08 03:28:36;;;;;;;24.23;13.00;;;;;;;-4.48;62.56;100579.23;1789286;80;21651;-38
2023/01/08 03:31:03;;;;;;;23.57;13.53;;;;;;;-4.50;62.65;100585.27;1727678;81;21029;-39
2023/01/08 03:33:30;;;;;;;29.75;14.83;;;;;;;-4.54;63.15;100580.16;1749951;82;21032;-39
2023/01/08 03:35:56;;;;;;;23.38;13.80;;;;;;;-4.57;63.39;100581.44;1749864;82;21265;-38
2023/01/08 03:38:30;;;;;;;27.37;14.30;;;;;;;-4.59;63.59;100590.63;1751180;81;21024;-38
2023/01/08 03:41:06;;;;;;;23.65;13.88;;;;;;;-4.59;63.61;100586.66;1752500;81;21016;-39
2023/01/08 03:43:34;;;;;;;29.92;13.65;;;;;;;-4.59;63.73;100586.66;1751854;81;21614;-39
2023/01/08 03:46:03;;;;;;;28.07;14.25;;;;;;;-4.59;63.91;100587.47;1752548;81;21082;-39
2023/01/08 03:48:30;;;;;;;26.20;13.70;;;;;;;-4.59;63.72;100582.69;1752721;81;21531;-39
2023/01/08 03:50:57;;;;;;;23.60;13.10;;;;;;;-4.57;63.87;100587.24;1752652;81;21470;-38
2023/01/08 03:53:23;;;;;;;26.70;13.50;;;;;;;-4.58;63.55;100589.59;1752427;81;21088;-38
2023/01/08 03:55:50;;;;;;;25.95;14.23;;;;;;;-4.60;63.43;100585.07;1752623;81;21545;-38
2023/01/08 03:58:17;;;;;;;28.70;14.10;;;;;;;-4.62;63.26;100572.58;1752462;81;21013;-38
2023/01/08 04:00:43;;;;;;;23.00;13.53;;;;;;;-4.64;63.11;100574.63;1752376;81;21300;-38
2023/01/08 04:03:10;;;;;;;26.57;13.58;;;;;;;-4.70;63.27;100578.22;1752143;81;21484;-38
2023/01/08 04:05:37;;;;;;;32.90;14.45;;;;;;;-4.69;63.43;100574.52;1752378;81;21052;-38
2023/01/08 04:08:04;;;;;;;30.30;16.42;;;;;;;-4.64;63.45;100573.31;1752423;81;20941;-38
2023/01/08 04:10:31;;;;;;;27.32;14.33;;;;;;;-4.70;63.64;100580.34;1752444;81;20988;-38
2023/01/08 04:12:57;;;;;;;31.75;14.50;;;;;;;-4.68;63.68;100580.91;1752273;81;21151;-38
2023/01/08 04:15:24;;;;;;;30.40;15.68;;;;;;;-4.67;63.73;100588.33;1751996;81;21036;-38
2023/01/08 04:17:50;;;;;;;29.92;14.70;;;;;;;-4.66;63.79;100591.27;1752179;81;21028;-38
2023/01/08 04:20:17;;;;;;;29.10;14.60;;;;;;;-4.62;63.60;100589.26;1727051;81;21309;-38
2023/01/08 04:22:44;;;;;;;33.02;15.25;;;;;;;-4.60;63.56;100589.03;1752315;81;21640;-39
2023/01/08 04:25:11;;;;;;;32.93;16.20;;;;;;;-4.59;63.45;100578.72;1752235;81;21487;-38
2023/01/08 04:27:37;;;;;;;28.52;15.23;;;;;;;-4.64;63.44;100579.92;1752117;81;21551;-38
2023/01/08 04:30:06;;;;;;;27.60;15.13;;;;;;;-4.67;63.52;100581.20;1752161;81;21044;-38
2023/01/08 04:32:32;;;;;;;29.48;15.58;;;;;;;-4.66;63.63;100579.36;1752642;81;20996;-39
2023/01/08 04:34:59;;;;;;;33.78;15.15;;;;;;;-4.69;63.68;100574.00;1752313;81;21001;-38
2023/01/08 04:37:26;;;;;;;27.77;15.20;;;;;;;-4.69;63.74;100580.61;1752194;81;21288;-38
2023/01/08 04:39:53;;;;;;;30.70;15.53;;;;;;;-4.69;63.75;100585.09;1752768;81;21018;-38
2023/01/08 04:42:20;;;;;;;28.40;14.75;;;;;;;-4.75;63.83;100590.81;1752826;81;21069;-38
2023/01/08 04:44:46;;;;;;;29.72;15.05;;;;;;;-4.80;64.13;100597.81;1752828;81;21044;-38
2023/01/08 04:47:14;;;;;;;32.15;16.07;;;;;;;-4.79;64.23;100601.53;1752809;81;21056;-38
2023/01/08 04:49:40;;;;;;;32.42;14.73;;;;;;;-4.78;64.41;100604.48;1729737;81;21252;-38
2023/01/08 04:52:07;;;;;;;32.03;15.13;;;;;;;-4.77;64.33;100603.45;1753290;81;20941;-38
2023/01/08 04:54:34;;;;;;;28.35;15.18;;;;;;;-4.71;64.45;100605.19;1753184;81;21012;-38
2023/01/08 04:57:00;;;;;;;32.17;15.90;;;;;;;-4.72;64.23;100610.70;1753330;81;21490;-38
2023/01/08 04:59:27;;;;;;;29.18;15.43;;;;;;;-4.69;64.33;100615.52;1753052;81;21012;-38
2023/01/08 05:01:55;;;;;;;30.43;15.58;;;;;;;-4.66;64.32;100617.21;1753131;81;21154;-39
2023/01/08 05:04:22;;;;;;;27.73;14.47;;;;;;;-4.68;64.32;100617.14;1752977;81;21015;-39
2023/01/08 05:06:48;;;;;;;35.60;16.75;;;;;;;-4.60;64.29;100616.27;1753026;81;21524;-38
2023/01/08 05:09:15;;;;;;;30.50;15.32;;;;;;;-4.52;64.40;100612.50;1752947;81;21032;-38
2023/01/08 05:11:43;;;;;;;33.35;15.65;;;;;;;-4.44;64.15;100612.14;1753083;81;21084;-38
2023/01/08 05:14:10;;;;;;;31.30;15.68;;;;;;;-4.41;63.87;100611.70;1752854;81;21224;-38
2023/01/08 05:16:36;;;;;;;30.97;15.55;;;;;;;-4.39;63.93;100607.77;1752809;81;21028;-38
2023/01/08 05:19:03;;;;;;;31.17;15.55;;;;;;;-4.34;63.96;100607.08;1753052;81;21040;-38
2023/01/08 05:21:29;;;;;;;29.65;15.43;;;;;;;-4.28;63.71;100603.52;1752872;81;21024;-38
2023/01/08 05:23:56;;;;;;;29.67;15.32;;;;;;;-5.94;63.58;100350.14;1752996;81;21064;-38
2023/01/08 05:26:23;;;;;;;29.72;15.78;;;;;;;-4.26;63.56;100602.75;1752885;81;21260;-39
2023/01/08 05:28:51;;;;;;;33.40;16.80;;;;;;;-4.17;63.73;100603.22;1752840;81;20998;-38
2023/01/08 05:31:20;;;;;;;24.57;13.53;;;;;;;-4.15;63.48;100605.10;1753058;81;20965;-38
2023/01/08 05:33:46;;;;;;;35.65;17.65;;;;;;;-4.09;63.60;100610.80;1752900;81;21032;-39
2023/01/08 05:36:13;;;;;;;34.30;17.75;;;;;;;-4.00;63.48;100611.53;1752837;81;21091;-39
2023/01/08 05:38:40;;;;;;;32.23;17.20;;;;;;;-3.98;63.21;100606.83;1752896;81;21245;-39
2023/01/08 05:41:07;;;;;;;30.40;16.65;;;;;;;-3.96;63.10;100615.32;1752906;81;21498;-39
2023/01/08 05:43:33;;;;;;;35.10;17.73;;;;;;;-4.32;63.18;100559.21;1752993;81;21046;-38
2023/01/08 05:46:02;;;;;;;33.53;17.05;;;;;;;-3.96;62.91;100617.16;1752720;81;21555;-38
2023/01/08 05:48:31;;;;;;;32.42;17.32;;;;;;;-4.01;62.92;100620.52;1752916;81;20961;-39
2023/01/08 05:50:57;;;;;;;33.98;18.85;;;;;;;-3.91;63.07;100619.11;1753446;81;21123;-39
2023/01/08 05:53:24;;;;;;;29.87;16.25;;;;;;;-3.82;62.95;100625.65;1753004;81;20990;-39
2023/01/08 05:55:51;;;;;;;32.40;16.75;;;;;;;-3.83;63.01;100622.73;1753266;81;21857;-38
2023/01/08 05:58:18;;;;;;;32.98;16.93;;;;;;;-3.82;62.70;100625.65;1753127;81;21033;-39
2023/01/08 06:00:45;;;;;;;29.98;16.52;;;;;;;-3.79;62.76;100626.02;1753248;81;21052;-39
2023/01/08 06:03:11;;;;;;;32.28;17.10;;;;;;;-3.74;62.75;100623.98;1752959;81;21266;-38
2023/01/08 06:05:38;;;;;;;32.13;17.82;;;;;;;-3.70;62.64;100622.47;1752759;81;21601;-38
2023/01/08 06:08:05;;;;;;;33.53;16.95;;;;;;;-3.65;62.57;100619.41;1752826;81;21087;-38
2023/01/08 06:10:32;;;;;;;29.37;15.93;;;;;;;-3.55;62.39;100622.77;1747343;81;21004;-38
2023/01/08 06:12:59;;;;;;;29.00;16.62;;;;;;;-3.54;62.16;100621.73;1752897;81;21016;-39
2023/01/08 06:15:27;;;;;;;30.20;17.25;;;;;;;-3.51;61.99;100619.93;1752888;81;21146;-38
2023/01/08 06:17:53;;;;;;;31.97;16.90;;;;;;;-3.54;61.81;100617.77;1752851;81;20981;-38
2023/01/08 06:20:21;;;;;;;35.15;17.48;;;;;;;-3.55;61.68;100616.14;1752892;81;20982;-39
2023/01/08 06:22:47;;;;;;;30.65;16.93;;;;;;;-3.65;61.83;100617.27;1752897;81;20948;-39
2023/01/08 06:25:14;;;;;;;29.95;17.12;;;;;;;-3.66;62.21;100624.93;1752895;81;21084;-38
2023/01/08 06:27:41;;;;;;;34.48;18.40;;;;;;;-3.57;62.09;100617.70;1753145;81;21483;-38
2023/01/08 06:30:09;;;;;;;34.25;17.57;;;;;;;-3.54;62.00;100619.09;1752698;81;22087;-38
2023/01/08 06:32:35;;;;;;;29.90;17.20;;;;;;;-3.57;61.89;100625.64;1753196;81;21024;-39
2023/01/08 06:35:04;;;;;;;36.40;18.42;;;;;;;-3.65;62.01;100623.37;1752907;81;21068;-39
2023/01/08 06:37:30;;;;;;;35.43;18.70;;;;;;;-3.67;61.94;100623.31;1753444;81;21080;-38
2023/01/08 06:39:57;;;;;;;33.48;18.02;;;;;;;-3.72;62.20;100624.53;1753143;81;21162;-39
2023/01/08 06:42:24;;;;;;;34.73;18.32;;;;;;;-3.71;62.23;100622.17;1752995;81;20956;-39
2023/01/08 06:44:51;;;;;;;36.08;18.12;;;;;;;-3.76;62.36;100620.75;1753204;81;20941;-38
2023/01/08 06:47:17;;;;;;;34.00;18.32;;;;;;;-3.79;62.43;100628.66;1753285;81;20894;-38
2023/01/08 06:49:44;;;;;;;33.60;17.70;;;;;;;-3.75;62.23;100630.31;1752818;81;21033;-38
2023/01/08 06:52:10;;;;;;;36.48;17.92;;;;;;;-3.77;62.16;100621.78;1752956;81;21130;-38
2023/01/08 06:54:37;;;;;;;38.17;19.20;;;;;;;-3.75;61.87;100619.20;1752874;81;21483;-38
2023/01/08 06:57:04;;;;;;;34.15;17.40;;;;;;;-3.72;62.15;100618.72;1752830;81;21602;-38
2023/01/08 06:59:30;;;;;;;34.05;17.82;;;;;;;-3.63;62.18;100613.87;1746589;81;21036;-39
2023/01/08 07:01:58;;;;;;;33.53;18.50;;;;;;;-3.56;62.22;100609.23;1752923;81;21020;-38
2023/01/08 07:04:25;;;;;;;34.43;17.90;;;;;;;-3.53;62.26;100612.72;1752990;81;21301;-38
2023/01/08 07:06:51;;;;;;;37.33;19.32;;;;;;;-3.47;61.95;100615.76;1752791;81;21000;-39
2023/01/08 07:09:18;;;;;;;34.35;18.20;;;;;;;-3.51;61.63;100612.78;1752926;81;21076;-38
2023/01/08 07:11:45;;;;;;;33.98;18.62;;;;;;;-3.49;61.43;100619.70;1752890;81;21056;-38
2023/01/08 07:14:11;;;;;;;36.83;19.85;;;;;;;-3.42;61.35;100619.83;1752798;81;22035;-38
2023/01/08 07:16:38;;;;;;;35.40;18.65;;;;;;;-3.39;61.55;100626.52;1752830;81;21149;-39
2023/01/08 07:19:06;;;;;;;34.48;18.35;;;;;;;-3.38;61.40;100627.59;1753113;81;20997;-39
2023/01/08 07:21:33;;;;;;;36.30;18.52;;;;;;;-3.39;61.16;100626.00;1753061;81;21082;-39
2023/01/08 07:24:00;;;;;;;33.65;18.42;;;;;;;-3.40;60.90;100623.06;1747050;81;21542;-39
2023/01/08 07:26:27;;;;;;;29.82;16.75;;;;;;;-3.42;60.96;100627.78;1753101;81;21044;-39
2023/01/08 07:28:54;;;;;;;35.28;17.82;;;;;;;-3.38;60.95;100619.64;1752894;81;21260;-39
2023/01/08 07:31:20;;;;;;;33.08;18.20;;;;;;;-3.37;60.76;100617.80;1752923;81;20992;-39
2023/01/08 07:33:49;;;;;;;31.25;16.17;;;;;;;-3.50;60.93;100614.92;1752944;81;20978;-38
2023/01/08 07:36:21;;;;;;;36.20;18.95;;;;;;;-3.53;61.06;100617.50;1752824;81;20961;-39
2023/01/08 07:38:44;;;;;;;36.23;18.37;;;;;;;-3.49;61.11;100617.86;1752437;81;21099;-39
2023/01/08 07:41:12;;;;;;;39.10;18.52;;;;;;;-3.56;61.33;100617.98;1752784;81;23146;-39
2023/01/08 07:43:38;;;;;;;38.30;19.37;;;;;;;-3.58;61.46;100621.90;1752985;81;21007;-39
2023/01/08 07:46:05;;;;;;;34.90;17.80;;;;;;;-3.62;61.63;100619.44;1752825;81;21099;-39
2023/01/08 07:48:32;;;;;;;37.23;18.32;;;;;;;-3.61;61.69;100614.43;1752677;81;21564;-39
2023/01/08 07:51:03;;;;;;;37.80;19.55;;;;;;;-3.60;61.63;100627.45;1752925;81;20976;-39
2023/01/08 07:53:29;;;;;;;42.93;19.92;;;;;;;-3.62;61.76;100632.17;1752751;81;21829;-39
2023/01/08 07:56:05;;;;;;;43.45;18.20;;;;;;;-3.59;61.85;100622.45;1753058;81;21015;-39
2023/01/08 10:39:01;;;;;;;19.50;12.70;;;;;;;-2.55;63.61;100569.55;105149;1285;600771;-37
2023/01/08 10:41:28;;;;;;;20.70;13.00;;;;;;;-2.60;63.02;100565.02;106640;1266;60934;-37
2023/01/08 10:43:59;;;;;;;25.40;14.60;;;;;;;-2.66;63.12;100563.12;106624;1267;62404;-38
2023/01/08 10:46:31;;;;;;;22.40;13.50;;;;;;;-2.70;63.12;100555.90;106485;1267;73460;-39
2023/01/08 10:48:59;;;;;;;23.40;13.20;;;;;;;-2.74;62.96;100558.44;106661;1267;70165;-39
2023/01/08 10:51:28;;;;;;;24.00;13.20;;;;;;;-2.79;63.26;100558.67;105730;1267;1003353;-39
2023/01/08 10:53:59;;;;;;;24.70;14.70;;;;;;;-2.82;62.94;100557.73;106725;1264;61402;-39
2023/01/08 10:56:28;;;;;;;27.50;14.50;;;;;;;-2.90;62.75;100555.81;106829;1264;62070;-39
2023/01/08 10:58:55;;;;;;;22.30;14.00;;;;;;;-2.98;63.37;100554.88;106769;1266;72706;-39
2023/01/08 11:01:30;;;;;;;24.90;15.20;;;;;;;-3.00;63.63;100553.59;106779;1264;70117;-39
2023/01/08 11:04:03;;;;;;;24.10;13.00;;;;;;;-3.00;63.87;100555.49;106751;1267;74315;-39
2023/01/08 11:06:43;;;;;;;25.60;15.10;;;;;;;-3.02;63.81;100555.09;105942;1266;1003822;-39
2023/01/08 11:09:21;;;;;;;21.80;13.20;;;;;;;-3.06;63.74;100556.77;106722;1267;60229;-40
2023/01/08 11:11:48;;;;;;;21.30;12.20;;;;;;;-3.11;63.87;100558.91;106048;1266;1002964;-40
2023/01/08 11:14:21;;;;;;;24.60;14.50;;;;;;;-3.13;63.99;100562.65;106833;1266;70265;-40
2023/01/08 11:16:48;;;;;;;28.20;15.20;;;;;;;-3.17;63.99;100557.02;105994;1264;1003260;-40
2023/01/08 11:19:22;;;;;;;26.20;13.60;;;;;;;-3.25;64.19;100553.91;106779;1264;59681;-40
2023/01/08 11:22:17;;;;;;;22.40;13.40;;;;;;;-3.31;64.22;100550.20;106719;1265;61231;-40
2023/01/08 11:24:45;;;;;;;26.30;14.90;;;;;;;-3.35;64.53;100559.88;106651;1270;74836;-40
2023/01/08 11:27:29;;;;;;;23.50;13.60;;;;;;;-3.35;64.53;100559.41;106754;1267;69854;-40
2023/01/08 11:30:17;;;;;;;24.50;14.30;;;;;;;-3.26;64.38;100554.20;106706;1266;73762;-40
2023/01/08 11:33:15;;;;;;;24.20;13.70;;;;;;;-3.23;64.63;100553.80;106720;1270;61139;-40
2023/01/08 11:35:49;;;;;;;22.30;13.10;;;;;;;-3.18;64.39;100553.27;106763;1264;59473;-40
2023/01/08 11:38:16;;;;;;;27.50;15.00;;;;;;;-3.16;64.44;100543.77;106756;1267;74938;-40
2023/01/08 11:41:05;;;;;;;26.70;14.20;;;;;;;-3.14;64.31;100541.58;106796;1267;67287;-40
2023/01/08 11:44:11;;;;;;;25.20;14.80;;;;;;;-3.14;64.22;100540.67;106407;1267;72971;-40
2023/01/08 11:46:47;;;;;;;24.20;14.20;;;;;;;-3.18;64.19;100540.98;106407;1272;60441;-40
2023/01/08 11:49:23;;;;;;;24.60;14.00;;;;;;;-3.22;64.04;100541.70;106651;1265;60844;-40
2023/01/08 11:52:11;;;;;;;25.00;13.00;;;;;;;-3.22;64.11;100539.70;105827;1266;1002992;-40
2023/01/08 11:55:07;;;;;;;21.20;13.10;;;;;;;-3.20;63.98;100540.84;106629;1266;69677;-40
2023/01/08 11:57:53;;;;;;;20.30;12.40;;;;;;;-3.18;64.18;100542.30;106578;1272;73560;-40
2023/01/08 12:00:46;;;;;;;23.20;13.50;;;;;;;-3.17;64.42;100539.66;106590;1266;59657;-39
2023/01/08 12:03:16;;;;;;;24.20;13.80;;;;;;;-3.11;64.49;100540.50;106701;1267;59734;-40
2023/01/08 12:06:13;;;;;;;25.10;13.10;;;;;;;-3.05;64.44;100536.16;105972;1271;1003668;-40
2023/01/08 12:09:14;;;;;;;23.00;13.90;;;;;;;-2.88;64.17;100528.83;106600;1264;70172;-40
2023/01/08 12:11:51;;;;;;;23.70;14.00;;;;;;;-2.83;63.74;100523.27;106720;1267;75005;-40
2023/01/08 12:14:37;;;;;;;25.50;13.90;;;;;;;-2.83;63.93;100516.86;106771;1267;59650;-40
2023/01/08 12:17:37;;;;;;;27.30;14.70;;;;;;;-2.79;63.81;100518.52;106737;1266;62213;-40
2023/01/08 12:20:22;;;;;;;25.50;14.30;;;;;;;-2.75;63.62;100517.56;106432;1264;74377;-40
2023/01/08 12:22:55;;;;;;;25.00;14.30;;;;;;;-2.77;63.83;100515.58;106509;1265;68787;-40
2023/01/08 12:25:54;;;;;;;24.90;14.10;;;;;;;-2.77;63.85;100518.22;106696;1267;72652;-40
2023/01/08 12:28:33;;;;;;;25.60;14.00;;;;;;;-2.79;63.84;100512.67;105967;1266;1003500;-40
2023/01/08 12:31:41;;;;;;;24.60;14.10;;;;;;;-2.85;63.76;100516.30;106745;1265;61925;-40
2023/01/08 12:34:40;;;;;;;27.20;14.50;;;;;;;-2.88;63.87;100508.78;106657;1265;74255;-40
2023/01/08 12:37:18;;;;;;;28.20;15.90;;;;;;;-2.89;64.00;100509.33;106987;1262;69161;-40
2023/01/08 12:39:49;;;;;;;23.50;12.60;;;;;;;-2.93;63.96;100510.39;107046;1262;72475;-40
2023/01/08 12:42:23;;;;;;;23.70;12.70;;;;;;;-2.88;63.95;100511.58;106980;1262;63358;-40
2023/01/08 12:44:53;;;;;;;23.70;13.10;;;;;;;-2.79;64.03;100510.71;106727;1258;61730;-40
2023/01/08 12:47:21;;;;;;;;;;;;;;;-2.73;63.94;100514.19;107141;1257;71951;-40
2023/01/08 12:49:55;;;;;;;24.10;12.70;;;;;;;-2.79;63.49;100508.96;107059;1258;70001;-40
2023/01/08 12:52:34;;;;;;;22.10;13.00;;;;;;;-2.84;63.70;100506.08;106240;1257;1003716;-40
2023/01/08 12:55:04;;;;;;;;;;;;;;;-2.83;63.88;100507.14;106974;1257;59774;-40
2023/01/08 12:57:38;;;;;;;19.30;11.00;;;;;;;-2.89;64.17;100509.55;107207;1258;59631;-40
2023/01/08 13:00:07;;;;;;;21.20;12.60;;;;;;;-2.93;64.08;100511.66;107236;1261;73368;-39
2023/01/08 13:02:53;;;;;;;23.60;13.40;;;;;;;-2.94;63.89;100510.48;107216;1257;69302;-39
2023/01/08 13:05:21;;;;;;;22.20;12.90;;;;;;;-2.98;64.00;100508.20;106965;1263;74415;-39
2023/01/08 13:07:52;;;;;;;22.80;13.20;;;;;;;-3.03;64.13;100506.88;106377;1260;1003452;-39
2023/01/08 13:10:35;;;;;;;23.80;13.20;;;;;;;-3.02;64.34;100505.89;107196;1261;62407;-39
2023/01/08 13:13:02;;;;;;;18.60;11.60;;;;;;;-3.02;64.05;100509.67;107010;1257;72177;-39
2023/01/08 13:15:30;;;;;;;22.30;13.30;;;;;;;-3.06;64.05;100501.45;107300;1261;70322;-39
2023/01/08 13:18:05;;;;;;;23.70;14.10;;;;;;;-3.07;64.10;100501.22;107222;1261;74230;-39
2023/01/08 13:20:32;;;;;;;22.00;12.40;;;;;;;-3.19;64.40;100479.86;107258;1257;61178;-39
2023/01/08 13:23:00;;;;;;;22.70;12.60;;;;;;;-3.09;64.38;100486.87;107038;1258;62327;-39
2023/01/08 13:25:35;;;;;;;22.30;13.10;;;;;;;-3.09;64.41;100486.27;106519;1257;1002956;-39
2023/01/08 13:28:43;;;;;;;20.20;12.40;;;;;;;-3.09;64.30;100483.89;107134;1257;70162;-39
2023/01/08 13:31:19;;;;;;;25.40;14.10;;;;;;;-3.07;64.50;100479.36;106743;1266;74037;-39
2023/01/08 13:33:48;;;;;;;23.90;13.80;;;;;;;-3.13;64.59;100470.19;107235;1259;62300;-39
2023/01/08 13:36:19;;;;;;;22.40;13.30;;;;;;;-3.19;64.68;100474.45;107072;1257;60704;-39
2023/01/08 13:39:22;;;;;;;23.00;13.00;;;;;;;-3.21;65.05;100473.27;107045;1258;74428;-39
2023/01/08 13:41:58;;;;;;;24.40;13.10;;;;;;;-3.27;65.15;100468.42;107033;1257;70419;-39
2023/01/08 13:44:31;;;;;;;22.60;12.30;;;;;;;-3.22;65.03;100467.45;107027;1261;75000;-39
2023/01/08 13:47:00;;;;;;;23.00;13.30;;;;;;;-3.24;64.79;100463.67;107053;1262;59688;-39
2023/01/08 13:49:35;;;;;;;22.00;13.80;;;;;;;-3.30;64.89;100469.20;107063;1263;59631;-39
2023/01/08 13:52:02;;;;;;;36.00;21.10;;;;;;;-3.37;64.99;100467.86;107042;1257;73165;-39
2023/01/08 13:54:39;;;;;;;35.90;23.40;;;;;;;-3.45;65.19;100464.29;107143;1258;69835;-39
2023/01/08 13:57:15;;;;;;;22.10;13.80;;;;;;;-3.52;65.04;100466.29;107002;1262;73206;-39
2023/01/08 13:59:47;;;;;;;22.40;12.40;;;;;;;-3.57;65.04;100471.96;106938;1261;59923;-39
2023/01/08 14:02:31;;;;;;;26.80;13.50;;;;;;;-3.61;65.19;100473.13;106425;1262;1003652;-39
2023/01/08 14:05:00;;;;;;;20.20;11.90;;;;;;;-3.65;65.46;100470.03;107106;1257;73384;-39
2023/01/08 14:07:27;;;;;;;21.50;11.90;;;;;;;-3.58;65.28;100469.01;106980;1257;67283;-39
2023/01/08 14:10:04;;;;;;;23.40;13.10;;;;;;;-3.54;65.14;100465.77;107091;1257;73896;-39